Time;durP1;ratioP1;P1;durP2;ratioP2;P2;SDS_P1;SDS_P2;PMS_P1;PMS_P2;Temp;Humidity;BMP_temperature;BMP_pressure;BME280_temperature;BME280_humidity;BME280_pressure;Samples;Min_cycle;Max_cycle;Signal;HPM_P1;HPM_P2
2023/12/11 00:01:33;;;;;;;;;;;;;;;-0.02;100.00;97228.20;110581;1242;71532;-62
2023/12/11 00:04:04;;;;;;;;;;;;;;;-0.02;100.00;97229.91;110712;1239;69272;-62
2023/12/11 00:06:35;;;;;;;;;;;;;;;0.00;100.00;97239.64;110516;1240;68040;-62
2023/12/11 00:09:04;;;;;;;;;;;;;;;0.01;100.00;97246.12;110588;1239;59664;-62
2023/12/11 00:11:34;;;;;;;;;;;;;;;-0.01;100.00;97247.54;110498;1238;59673;-62
2023/12/11 00:14:04;;;;;;;;;;;;;;;-0.03;100.00;97250.00;110688;1239;72288;-62
2023/12/11 00:16:33;;;;;;;;;;;;;;;0.00;100.00;97254.55;110462;1244;67720;-62
2023/12/11 00:19:04;;;;;;;;;;;;;;;0.04;100.00;97255.63;110562;1242;69463;-62
2023/12/11 00:21:35;;;;;;;;;;;;;;;0.03;100.00;97257.89;110473;1239;59923;-62
2023/12/11 00:24:07;;;;;;;;;;;;;;;0.01;100.00;97259.48;110588;1239;59623;-62
2023/12/11 00:26:37;;;;;;;;;;;;;;;-0.05;100.00;97252.48;110596;1239;71590;-62
2023/12/11 00:29:07;;;;;;;;;;;;;;;-0.09;100.00;97243.88;110564;1239;69221;-63
2023/12/11 00:31:39;;;;;;;;;;;;;;;-0.12;100.00;97240.73;110584;1239;68401;-63
2023/12/11 00:34:10;;;;;;;;;;;;;;;-0.14;100.00;97240.95;110603;1239;59689;-64
2023/12/11 00:36:42;;;;;;;;;;;;;;;-0.16;100.00;97244.09;110576;1239;59656;-62
2023/12/11 00:39:16;;;;;;;;;;;;;;;-0.17;100.00;97246.89;110550;1239;70800;-63
2023/12/11 00:41:47;;;;;;;;;;;;;;;-0.17;100.00;97245.67;110591;1239;69036;-62
2023/12/11 00:44:20;;;;;;;;;;;;;;;-0.16;100.00;97242.06;110518;1240;69216;-62
2023/12/11 00:46:57;;;;;;;;;;;;;;;-0.18;100.00;97241.10;110697;1246;59686;-61
2023/12/11 00:49:28;;;;;;;;;;;;;;;-0.21;100.00;97245.11;110591;1239;59690;-62
2023/12/11 00:51:58;;;;;;;;;;;;;;;-0.21;100.00;97251.83;110616;1237;71507;-62
2023/12/11 00:54:29;;;;;;;;;;;;;;;-0.22;100.00;97253.23;110668;1240;69273;-62
2023/12/11 00:57:00;;;;;;;;;;;;;;;-0.25;100.00;97253.14;110489;1239;68553;-62
2023/12/11 00:59:33;;;;;;;;;;;;;;;-0.29;100.00;97251.71;110550;1239;59708;-62
2023/12/11 01:02:02;;;;;;;;;;;;;;;-0.31;100.00;97250.23;110465;1241;59684;-62
2023/12/11 01:04:34;;;;;;;;;;;;;;;-0.32;100.00;97246.86;110691;1238;70633;-61
2023/12/11 01:07:07;;;;;;;;;;;;;;;-0.34;100.00;97249.66;110621;1239;70019;-62
2023/12/11 01:09:41;;;;;;;;;;;;;;;-0.35;100.00;97246.46;110659;1239;68508;-62
2023/12/11 01:12:13;;;;;;;;;;;;;;;-0.38;100.00;97247.71;110595;1239;59749;-62
2023/12/11 01:14:46;;;;;;;;;;;;;;;-0.39;100.00;97255.98;110545;1239;59628;-62
2023/12/11 01:17:24;;;;;;;;;;;;;;;-0.39;100.00;97254.95;110539;1239;71416;-62
2023/12/11 01:20:13;;;;;;;;;;;;;;;-0.38;100.00;97242.41;110660;1239;69231;-62
2023/12/11 01:22:52;;;;;;;;;;;;;;;-0.36;100.00;97241.48;110711;1239;69266;-61
2023/12/11 01:25:26;;;;;;;;;;;;;;;-0.34;100.00;97231.50;110583;1239;59730;-62
2023/12/11 01:27:58;;;;;;;;;;;;;;;-0.33;100.00;97232.48;110589;1239;59695;-62
2023/12/11 01:30:32;;;;;;;;;;;;;;;-0.31;100.00;97226.79;110453;1239;71442;-61
2023/12/11 01:33:08;;;;;;;;;;;;;;;-0.29;100.00;97226.00;110601;1239;69100;-61
2023/12/11 01:35:42;;;;;;;;;;;;;;;-0.27;100.00;97233.84;110542;1239;69392;-62
2023/12/11 01:38:18;;;;;;;;;;;;;;;-0.24;100.00;97228.27;110623;1239;59693;-62
2023/12/11 01:40:51;;;;;;;;;;;;;;;-0.23;100.00;97220.02;110605;1239;59683;-62
2023/12/11 01:43:25;;;;;;;;;;;;;;;-0.21;100.00;97220.96;110519;1240;70675;-62
2023/12/11 01:46:03;;;;;;;;;;;;;;;-0.20;100.00;97216.48;110674;1239;68434;-62
2023/12/11 01:48:37;;;;;;;;;;;;;;;-0.18;100.00;97215.23;110597;1239;68457;-62
2023/12/11 01:51:14;;;;;;;;;;;;;;;-0.16;100.00;97216.01;110585;1238;60057;-62
2023/12/11 01:53:53;;;;;;;;;;;;;;;-0.14;100.00;97215.09;106517;1241;5174958;-63
2023/12/11 01:56:31;;;;;;;;;;;;;;;-0.14;100.00;97217.65;110488;1239;71531;-63
2023/12/11 01:59:05;;;;;;;;;;;;;;;-0.12;100.00;97224.79;110695;1238;68604;-63
2023/12/11 02:01:37;;;;;;;;;;;;;;;-0.11;100.00;97228.50;110533;1239;69121;-63
2023/12/11 02:04:11;;;;;;;;;;;;;;;-0.09;100.00;97224.86;110655;1239;59802;-63
2023/12/11 02:06:51;;;;;;;;;;;;;;;-0.07;100.00;97220.50;110450;1239;59656;-63
2023/12/11 02:09:29;;;;;;;;;;;;;;;-0.05;100.00;97218.39;110652;1239;71319;-63
2023/12/11 02:12:00;;;;;;;;;;;;;;;-0.05;100.00;97213.75;110671;1240;68184;-63
2023/12/11 02:14:31;;;;;;;;;;;;;;;-0.05;100.00;97209.80;110633;1239;67896;-63
2023/12/11 02:17:09;;;;;;;;;;;;;;;-0.05;100.00;97213.41;110542;1239;59711;-63
2023/12/11 02:19:54;;;;;;;;;;;;;;;-0.03;100.00;97211.99;110699;1237;59647;-63
2023/12/11 02:22:29;;;;;;;;;;;;;;;-0.03;100.00;97208.02;110600;1238;70569;-63
2023/12/11 02:25:04;;;;;;;;;;;;;;;-0.03;100.00;97205.30;110469;1246;69256;-63
2023/12/11 02:27:42;;;;;;;;;;;;;;;-0.02;100.00;97201.66;110437;1239;69337;-63
2023/12/11 02:30:14;;;;;;;;;;;;;;;0.01;100.00;97197.45;110565;1246;59657;-63
2023/12/11 02:32:51;;;;;;;;;;;;;;;0.04;100.00;97190.18;110555;1238;59804;-63
2023/12/11 02:35:25;;;;;;;;;;;;;;;0.03;100.00;97184.02;110609;1238;71199;-63
2023/12/11 02:38:00;;;;;;;;;;;;;;;0.03;100.00;97177.52;110527;1238;69257;-63
2023/12/11 02:40:34;;;;;;;;;;;;;;;0.00;100.00;97174.87;110552;1239;69439;-63
2023/12/11 02:43:05;;;;;;;;;;;;;;;-0.02;100.00;97178.70;110605;1239;59702;-63
2023/12/11 02:45:42;;;;;;;;;;;;;;;-0.02;100.00;97182.46;110641;1239;59649;-63
2023/12/11 02:48:18;;;;;;;;;;;;;;;-0.02;100.00;97186.58;110619;1239;71362;-63
2023/12/11 02:50:50;;;;;;;;;;;;;;;-0.01;100.00;97184.30;110512;1246;69337;-63
2023/12/11 02:53:23;;;;;;;;;;;;;;;-0.00;100.00;97184.14;110623;1246;68672;-63
2023/12/11 02:55:57;;;;;;;;;;;;;;;0.01;100.00;97184.27;110927;1244;59741;-62
2023/12/11 02:58:35;;;;;;;;;;;;;;;0.02;100.00;97186.13;110586;1239;60034;-62
2023/12/11 03:01:09;;;;;;;;;;;;;;;0.05;100.00;97182.09;110879;1246;70593;-62
2023/12/11 03:03:51;;;;;;;;;;;;;;;0.06;100.00;97178.96;110926;1239;67573;-63
2023/12/11 03:06:26;;;;;;;;;;;;;;;0.06;100.00;97177.42;110781;1239;69629;-62
2023/12/11 03:09:07;;;;;;;;;;;;;;;0.07;100.00;97176.70;110598;1239;59698;-64
2023/12/11 03:11:41;;;;;;;;;;;;;;;0.09;100.00;97174.73;110525;1239;59734;-63
2023/12/11 03:14:15;;;;;;;;;;;;;;;0.11;100.00;97180.69;110500;1239;71816;-63
2023/12/11 03:16:49;;;;;;;;;;;;;;;0.13;100.00;97180.77;110504;1239;68370;-63
2023/12/11 03:19:20;;;;;;;;;;;;;;;0.13;100.00;97173.38;110705;1241;69339;-63
2023/12/11 03:21:55;;;;;;;;;;;;;;;0.14;100.00;97176.80;110669;1240;59726;-62
2023/12/11 03:24:31;;;;;;;;;;;;;;;0.15;100.00;97177.63;110598;1239;59664;-63
2023/12/11 03:27:02;;;;;;;;;;;;;;;0.16;100.00;97179.48;110552;1239;69634;-63
2023/12/11 03:29:38;;;;;;;;;;;;;;;0.16;100.00;97175.34;110480;1239;67460;-63
2023/12/11 03:32:12;;;;;;;;;;;;;;;0.16;100.00;97168.50;110615;1240;68563;-63
2023/12/11 03:34:45;;;;;;;;;;;;;;;0.13;100.00;97164.30;110724;1244;59664;-63
2023/12/11 03:37:20;;;;;;;;;;;;;;;0.13;100.00;97167.39;110683;1240;59689;-63
2023/12/11 03:39:52;;;;;;;;;;;;;;;0.13;100.00;97174.42;110656;1242;71210;-63
2023/12/11 03:42:26;;;;;;;;;;;;;;;0.15;100.00;97185.16;110465;1240;68375;-63
2023/12/11 03:44:58;;;;;;;;;;;;;;;0.16;100.00;97189.58;110523;1247;68808;-63
2023/12/11 03:47:31;;;;;;;;;;;;;;;0.18;100.00;97183.67;110549;1240;59683;-63
2023/12/11 03:50:04;;;;;;;;;;;;;;;0.18;100.00;97178.19;110617;1240;59740;-63
2023/12/11 03:52:36;;;;;;;;;;;;;;;0.19;100.00;97185.02;110636;1244;70627;-63
2023/12/11 03:55:09;;;;;;;;;;;;;;;0.11;100.00;97187.52;110538;1239;69196;-63
2023/12/11 03:57:42;;;;;;;;;;;;;;;0.09;100.00;97184.66;110626;1246;68182;-62
2023/12/11 04:00:15;;;;;;;;;;;;;;;0.10;100.00;97183.63;110551;1241;59737;-63
2023/12/11 04:02:45;;;;;;;;;;;;;;;0.11;100.00;97181.73;110482;1239;59643;-63
2023/12/11 04:05:15;;;;;;;;;;;;;;;0.11;100.00;97179.63;110421;1242;71467;-63
2023/12/11 04:07:46;;;;;;;;;;;;;;;0.12;100.00;97184.55;110400;1242;68477;-63
2023/12/11 04:10:15;;;;;;;;;;;;;;;0.13;100.00;97190.54;110535;1246;69815;-63
2023/12/11 04:12:45;;;;;;;;;;;;;;;0.13;100.00;97193.45;110536;1240;59735;-63
2023/12/11 04:15:14;;;;;;;;;;;;;;;0.13;100.00;97190.86;110667;1240;59624;-63
2023/12/11 04:17:44;;;;;;;;;;;;;;;0.13;100.00;97186.22;110651;1240;71390;-63
2023/12/11 04:20:14;;;;;;;;;;;;;;;0.15;100.00;97188.75;110514;1240;69462;-63
2023/12/11 04:22:44;;;;;;;;;;;;;;;0.17;100.00;97193.83;110631;1239;69374;-63
2023/12/11 04:25:15;;;;;;;;;;;;;;;0.17;100.00;97197.56;110642;1239;59738;-63
2023/12/11 04:27:46;;;;;;;;;;;;;;;0.18;100.00;97203.55;110637;1247;59694;-63
2023/12/11 04:30:17;;;;;;;;;;;;;;;0.20;100.00;97209.64;110615;1246;70633;-63
2023/12/11 04:32:46;;;;;;;;;;;;;;;0.22;100.00;97206.34;110558;1240;68342;-63
2023/12/11 04:35:17;;;;;;;;;;;;;;;0.23;100.00;97206.98;110566;1241;68236;-63
2023/12/11 04:37:48;;;;;;;;;;;;;;;0.23;100.00;97197.71;110633;1239;59998;-63
2023/12/11 04:40:18;;;;;;;;;;;;;;;0.23;100.00;97198.91;110620;1239;59641;-63
2023/12/11 04:42:48;;;;;;;;;;;;;;;0.23;100.00;97204.91;110555;1241;71459;-63
2023/12/11 04:45:18;;;;;;;;;;;;;;;0.25;100.00;97210.86;110651;1247;69167;-63
2023/12/11 04:47:50;;;;;;;;;;;;;;;0.26;100.00;97208.91;110558;1238;68696;-63
2023/12/11 04:50:20;;;;;;;;;;;;;;;0.28;100.00;97211.27;110569;1242;59818;-63
2023/12/11 04:52:50;;;;;;;;;;;;;;;0.29;100.00;97212.97;110517;1242;59682;-63
2023/12/11 04:55:20;;;;;;;;;;;;;;;0.29;100.00;97212.27;110626;1237;72247;-63
2023/12/11 04:57:50;;;;;;;;;;;;;;;0.35;100.00;97214.42;110686;1239;69227;-63
2023/12/11 05:00:21;;;;;;;;;;;;;;;0.36;100.00;97213.36;110595;1241;68336;-63
2023/12/11 05:02:50;;;;;;;;;;;;;;;0.35;100.00;97210.84;110632;1240;59737;-63
2023/12/11 05:05:20;;;;;;;;;;;;;;;0.34;100.00;97208.98;110550;1240;59737;-62
2023/12/11 05:07:51;;;;;;;;;;;;;;;0.33;100.00;97208.85;110690;1239;71418;-63
2023/12/11 05:10:23;;;;;;;;;;;;;;;0.35;100.00;97205.85;110601;1246;68577;-63
2023/12/11 05:12:54;;;;;;;;;;;;;;;0.37;100.00;97210.27;110510;1239;67632;-63
2023/12/11 05:15:24;;;;;;;;;;;;;;;0.30;100.00;97209.98;110572;1239;59744;-63
2023/12/11 05:17:55;;;;;;;;;;;;;;;0.25;100.00;97215.30;110588;1242;59704;-63
2023/12/11 05:20:25;;;;;;;;;;;;;;;0.22;100.00;97213.84;110676;1241;72452;-63
2023/12/11 05:22:55;;;;;;;;;;;;;;;0.22;100.00;97217.80;110587;1239;69581;-62
2023/12/11 05:25:25;;;;;;;;;;;;;;;0.22;100.00;97213.02;110629;1239;68601;-63
2023/12/11 05:27:54;;;;;;;;;;;;;;;0.21;100.00;97211.16;110577;1239;59735;-63
2023/12/11 05:30:24;;;;;;;;;;;;;;;0.23;100.00;97211.26;110604;1239;59741;-63
2023/12/11 05:32:53;;;;;;;;;;;;;;;0.21;100.00;97213.39;110524;1239;70337;-63
2023/12/11 05:35:22;;;;;;;;;;;;;;;0.21;100.00;97223.83;110571;1239;69224;-62
2023/12/11 05:37:52;;;;;;;;;;;;;;;0.22;100.00;97222.08;110595;1239;69199;-64
2023/12/11 05:40:24;;;;;;;;;;;;;;;0.22;100.00;97213.70;110528;1239;59691;-63
2023/12/11 05:42:54;;;;;;;;;;;;;;;0.20;100.00;97216.66;110480;1238;59734;-63
2023/12/11 05:45:23;;;;;;;;;;;;;;;0.21;100.00;97219.39;110523;1240;70672;-63
2023/12/11 05:47:53;;;;;;;;;;;;;;;0.22;100.00;97211.98;110604;1239;69264;-63
2023/12/11 05:50:23;;;;;;;;;;;;;;;0.22;100.00;97212.48;110588;1239;69400;-64
2023/12/11 05:52:53;;;;;;;;;;;;;;;0.24;100.00;97214.15;110521;1242;59720;-63
2023/12/11 05:55:23;;;;;;;;;;;;;;;0.26;100.00;97214.09;110587;1240;59624;-63
2023/12/11 05:57:53;;;;;;;;;;;;;;;0.27;100.00;97215.59;110552;1242;70503;-61
2023/12/11 06:00:22;;;;;;;;;;;;;;;0.28;100.00;97226.17;110543;1239;68496;-61
2023/12/11 06:02:52;;;;;;;;;;;;;;;0.29;100.00;97233.34;110606;1239;69084;-63
2023/12/11 06:05:21;;;;;;;;;;;;;;;0.30;100.00;97233.98;110549;1247;59735;-63
2023/12/11 06:07:50;;;;;;;;;;;;;;;0.32;100.00;97232.04;110550;1239;59651;-63
2023/12/11 06:10:20;;;;;;;;;;;;;;;0.32;100.00;97235.13;110593;1239;70637;-63
2023/12/11 06:12:50;;;;;;;;;;;;;;;0.32;100.00;97236.16;110664;1243;68216;-63
2023/12/11 06:15:19;;;;;;;;;;;;;;;0.33;100.00;97238.35;110479;1245;69658;-63
2023/12/11 06:17:49;;;;;;;;;;;;;;;0.33;100.00;97238.33;110517;1245;59679;-63
2023/12/11 06:20:18;;;;;;;;;;;;;;;0.34;100.00;97239.18;110655;1239;59674;-63
2023/12/11 06:22:47;;;;;;;;;;;;;;;0.34;100.00;97238.84;110578;1239;71221;-63
2023/12/11 06:25:17;;;;;;;;;;;;;;;0.34;100.00;97244.65;110619;1240;69193;-63
2023/12/11 06:27:46;;;;;;;;;;;;;;;0.33;100.00;97251.38;110602;1246;69877;-63
2023/12/11 06:30:18;;;;;;;;;;;;;;;0.33;100.00;97258.23;110663;1245;59743;-63
2023/12/11 06:32:48;;;;;;;;;;;;;;;0.33;100.00;97262.86;110607;1239;59669;-63
2023/12/11 06:35:17;;;;;;;;;;;;;;;0.34;100.00;97260.77;110658;1239;71981;-63
2023/12/11 06:37:46;;;;;;;;;;;;;;;0.35;100.00;97265.86;110575;1239;69927;-63
2023/12/11 06:40:16;;;;;;;;;;;;;;;0.38;100.00;97269.38;110610;1239;69374;-63
2023/12/11 06:42:46;;;;;;;;;;;;;;;0.41;100.00;97275.44;110657;1239;59615;-65
2023/12/11 06:45:15;;;;;;;;;;;;;;;0.46;100.00;97279.20;110678;1239;59676;-65
2023/12/11 06:47:45;;;;;;;;;;;;;;;0.48;100.00;97279.98;110629;1240;71370;-62
2023/12/11 06:50:19;;;;;;;;;;;;;;;0.52;100.00;97282.62;110513;1240;69870;-62
2023/12/11 06:52:49;;;;;;;;;;;;;;;0.54;100.00;97285.11;110633;1239;69259;-62
2023/12/11 06:55:19;;;;;;;;;;;;;;;0.66;100.00;97286.41;110645;1239;59734;-62
2023/12/11 06:57:48;;;;;;;;;;;;;;;0.71;100.00;97284.52;110649;1241;59671;-63
2023/12/11 07:00:19;;;;;;;;;;;;;;;0.72;100.00;97287.05;110668;1244;71331;-62
2023/12/11 07:02:49;;;;;;;;;;;;;;;0.72;100.00;97287.73;110645;1240;69086;-62
2023/12/11 07:05:18;;;;;;;;;;;;;;;0.74;100.00;97286.63;110548;1239;69307;-63
2023/12/11 07:07:48;;;;;;;;;;;;;;;0.78;100.00;97287.01;110582;1239;59738;-63
2023/12/11 07:10:18;;;;;;;;;;;;;;;0.76;100.00;97283.83;110587;1241;59654;-63
2023/12/11 07:12:49;;;;;;;;;;;;;;;0.76;100.00;97289.83;110532;1239;71360;-63
2023/12/11 07:15:19;;;;;;;;;;;;;;;0.79;100.00;97291.45;110596;1240;69156;-63
2023/12/11 07:17:49;;;;;;;;;;;;;;;0.83;100.00;97290.11;110514;1245;69125;-65
2023/12/11 07:20:19;;;;;;;;;;;;;;;0.89;100.00;97281.65;110596;1238;59690;-61
2023/12/11 07:22:49;;;;;;;;;;;;;;;0.94;100.00;97275.42;110530;1239;59726;-60
2023/12/11 07:25:18;;;;;;;;;;;;;;;0.99;100.00;97270.27;110680;1247;70647;-60
2023/12/11 07:27:48;;;;;;;;;;;;;;;1.03;100.00;97271.19;110501;1239;69782;-62
2023/12/11 07:30:17;;;;;;;;;;;;;;;1.05;100.00;97275.89;110524;1242;69868;-62
2023/12/11 07:32:47;;;;;;;;;;;;;;;1.08;100.00;97280.96;110558;1239;60076;-61
2023/12/11 07:35:16;;;;;;;;;;;;;;;1.11;100.00;97279.78;110450;1242;60198;-61
2023/12/11 07:37:45;;;;;;;;;;;;;;;1.20;100.00;97282.88;110654;1242;71666;-62
2023/12/11 07:40:14;;;;;;;;;;;;;;;1.26;100.00;97282.31;110532;1238;68526;-62
2023/12/11 07:42:43;;;;;;;;;;;;;;;1.30;100.00;97281.81;110587;1240;69196;-62
2023/12/11 07:45:14;;;;;;;;;;;;;;;1.29;100.00;97286.33;110714;1244;59672;-62
2023/12/11 07:47:43;;;;;;;;;;;;;;;1.34;100.00;97289.75;110621;1239;59688;-62
2023/12/11 07:50:13;;;;;;;;;;;;;;;1.41;100.00;97288.79;110632;1239;71329;-61
2023/12/11 07:52:42;;;;;;;;;;;;;;;1.50;100.00;97291.89;110520;1238;68510;-61
2023/12/11 07:55:11;;;;;;;;;;;;;;;1.62;100.00;97293.65;110520;1239;69309;-61
2023/12/11 07:57:41;;;;;;;;;;;;;;;1.69;100.00;97303.34;110604;1239;59700;-61
2023/12/11 08:00:11;;;;;;;;;;;;;;;1.74;100.00;97305.73;110675;1239;59679;-61
2023/12/11 08:02:41;;;;;;;;;;;;;;;1.75;100.00;97307.93;110492;1239;71461;-62
2023/12/11 08:05:10;;;;;;;;;;;;;;;1.73;100.00;97305.78;110582;1239;69410;-62
2023/12/11 08:07:39;;;;;;;;;;;;;;;1.73;100.00;97303.20;110522;1239;68303;-60
2023/12/11 08:10:09;;;;;;;;;;;;;;;1.79;100.00;97308.63;110597;1239;59731;-60
2023/12/11 08:12:39;;;;;;;;;;;;;;;1.89;100.00;97309.93;110656;1239;59696;-60
2023/12/11 08:15:09;;;;;;;;;;;;;;;1.97;100.00;97310.98;110646;1238;71650;-61
2023/12/11 08:17:38;;;;;;;;;;;;;;;1.96;100.00;97308.84;110693;1239;69256;-61
2023/12/11 08:20:09;;;;;;;;;;;;;;;2.05;100.00;97304.48;110567;1239;69854;-61
2023/12/11 08:22:42;;;;;;;;;;;;;;;2.16;100.00;97303.73;110472;1246;59672;-61
2023/12/11 08:25:12;;;;;;;;;;;;;;;2.31;100.00;97295.72;110627;1239;59637;-61
2023/12/11 08:27:43;;;;;;;;;;;;;;;2.44;100.00;97292.92;110678;1240;71658;-61
2023/12/11 08:30:12;;;;;;;;;;;;;;;2.61;100.00;97285.98;110550;1240;69669;-61
2023/12/11 08:32:41;;;;;;;;;;;;;;;2.84;100.00;97281.39;110510;1239;69891;-60
2023/12/11 08:35:11;;;;;;;;;;;;;;;3.03;100.00;97280.73;110564;1238;59690;-61
2023/12/11 08:37:39;;;;;;;;;;;;;;;3.14;100.00;97268.88;110540;1242;59657;-62
2023/12/11 08:40:09;;;;;;;;;;;;;;;3.23;100.00;97249.18;110494;1242;70246;-63
2023/12/11 08:42:38;;;;;;;;;;;;;;;3.31;100.00;97245.19;110478;1239;69283;-62
2023/12/11 08:45:09;;;;;;;;;;;;;;;3.39;99.91;97248.94;110521;1241;69326;-62
2023/12/11 08:47:41;;;;;;;;;;;;;;;3.50;100.00;97258.77;110530;1241;59694;-62
2023/12/11 08:50:14;;;;;;;;;;;;;;;3.56;100.00;97257.27;110445;1241;59586;-62
2023/12/11 08:52:44;;;;;;;;;;;;;;;3.57;99.96;97255.81;110397;1244;71622;-61
2023/12/11 08:55:13;;;;;;;;;;;;;;;3.35;97.95;97258.42;110553;1242;69841;-61
2023/12/11 08:57:44;;;;;;;;;;;;;;;3.28;98.90;97260.83;110448;1242;69127;-61
2023/12/11 09:00:14;;;;;;;;;;;;;;;3.24;99.77;97260.64;110622;1238;59699;-61
2023/12/11 09:02:43;;;;;;;;;;;;;;;3.13;99.65;97258.58;110521;1241;59686;-61
2023/12/11 09:05:14;;;;;;;;;;;;;;;2.96;99.21;97244.20;110477;1242;70734;-61
2023/12/11 09:07:43;;;;;;;;;;;;;;;2.84;99.49;97244.56;110650;1238;69317;-62
2023/12/11 09:10:12;;;;;;;;;;;;;;;2.75;100.00;97247.36;110624;1242;68491;-61
2023/12/11 09:12:41;;;;;;;;;;;;;;;2.48;100.00;97254.88;110581;1238;59679;-61
2023/12/11 09:15:11;;;;;;;;;;;;;;;2.14;100.00;97255.80;110475;1241;59675;-61
2023/12/11 09:17:41;;;;;;;;;;;;;;;2.06;100.00;97257.17;110636;1238;71338;-61
2023/12/11 09:20:10;;;;;;;;;;;;;;;1.94;100.00;97250.10;110675;1241;69221;-61
2023/12/11 09:22:40;;;;;;;;;;;;;;;1.90;100.00;97231.53;110681;1239;69893;-61
2023/12/11 09:25:10;;;;;;;;;;;;;;;1.96;100.00;97221.67;110601;1239;59689;-61
2023/12/11 09:27:39;;;;;;;;;;;;;;;2.01;100.00;97220.60;110561;1241;59712;-61
2023/12/11 09:30:09;;;;;;;;;;;;;;;1.95;100.00;97221.55;110590;1240;71833;-61
2023/12/11 09:32:38;;;;;;;;;;;;;;;1.98;100.00;97222.63;110635;1240;69707;-61
2023/12/11 09:35:08;;;;;;;;;;;;;;;2.07;100.00;97214.85;110558;1239;68796;-61
2023/12/11 09:37:39;;;;;;;;;;;;;;;2.13;100.00;97210.98;110339;1242;59705;-61
2023/12/11 09:40:10;;;;;;;;;;;;;;;2.21;100.00;97202.37;110457;1241;59728;-61
2023/12/11 09:42:41;;;;;;;;;;;;;;;2.35;100.00;97191.80;110305;1238;71907;-61
2023/12/11 09:45:10;;;;;;;;;;;;;;;2.48;100.00;97177.84;110414;1240;70163;-61
2023/12/11 09:47:43;;;;;;;;;;;;;;;2.59;100.00;97169.60;110509;1240;69096;-61
2023/12/11 09:50:13;;;;;;;;;;;;;;;2.69;100.00;97160.73;110546;1239;59660;-61
2023/12/11 09:52:43;;;;;;;;;;;;;;;2.82;100.00;97155.85;110566;1242;59682;-61
2023/12/11 09:55:12;;;;;;;;;;;;;;;2.91;100.00;97152.66;110567;1238;71173;-61
2023/12/11 09:57:42;;;;;;;;;;;;;;;2.96;100.00;97154.64;110576;1240;68494;-61
2023/12/11 10:00:13;;;;;;;;;;;;;;;3.06;100.00;97142.98;110508;1241;68575;-62
2023/12/11 10:02:47;;;;;;;;;;;;;;;3.18;100.00;97141.09;110514;1240;59674;-61
2023/12/11 10:05:23;;;;;;;;;;;;;;;3.21;100.00;97143.16;110623;1240;59600;-61
2023/12/11 10:07:52;;;;;;;;;;;;;;;3.25;100.00;97135.75;110514;1242;71341;-61
2023/12/11 10:10:31;;;;;;;;;;;;;;;3.28;100.00;97124.40;110561;1241;69183;-61
2023/12/11 10:13:01;;;;;;;;;;;;;;;3.26;100.00;97122.42;110483;1241;69065;-61
2023/12/11 10:15:31;;;;;;;;;;;;;;;3.16;100.00;97114.48;110531;1241;59711;-61
2023/12/11 10:18:09;;;;;;;;;;;;;;;3.12;99.97;97123.79;110485;1242;59634;-61
2023/12/11 10:20:42;;;;;;;;;;;;;;;3.02;100.00;97121.48;110448;1246;72020;-62
2023/12/11 10:23:18;;;;;;;;;;;;;;;3.01;100.00;97123.96;110543;1240;70000;-61
2023/12/11 10:25:49;;;;;;;;;;;;;;;3.06;100.00;97124.23;110572;1240;69282;-61
2023/12/11 10:28:20;;;;;;;;;;;;;;;3.12;100.00;97128.25;110470;1239;59688;-61
2023/12/11 10:30:50;;;;;;;;;;;;;;;3.07;100.00;97120.06;110506;1239;59721;-62
2023/12/11 10:33:21;;;;;;;;;;;;;;;2.98;100.00;97122.73;110405;1240;71439;-61
2023/12/11 10:35:51;;;;;;;;;;;;;;;2.88;100.00;97132.16;110490;1242;70037;-62
2023/12/11 10:38:22;;;;;;;;;;;;;;;2.74;100.00;97134.34;110491;1241;69439;-63
2023/12/11 10:40:53;;;;;;;;;;;;;;;2.64;100.00;97137.71;110391;1241;59685;-62
2023/12/11 10:43:22;;;;;;;;;;;;;;;2.50;100.00;97132.65;110690;1239;59633;-62
2023/12/11 10:45:51;;;;;;;;;;;;;;;2.42;100.00;97132.69;110499;1241;71368;-62
2023/12/11 10:48:21;;;;;;;;;;;;;;;2.35;100.00;97123.39;110500;1241;69259;-61
2023/12/11 10:50:50;;;;;;;;;;;;;;;2.33;100.00;97128.45;110545;1240;69283;-63
2023/12/11 10:53:20;;;;;;;;;;;;;;;2.31;100.00;97131.46;110650;1238;59804;-60
2023/12/11 10:55:50;;;;;;;;;;;;;;;2.35;100.00;97137.13;110548;1242;59633;-61
2023/12/11 10:58:20;;;;;;;;;;;;;;;2.38;100.00;97136.33;110579;1241;71983;-60
2023/12/11 11:00:49;;;;;;;;;;;;;;;2.44;100.00;97125.37;110380;1238;69395;-60
2023/12/11 11:03:19;;;;;;;;;;;;;;;2.47;100.00;97120.39;110437;1238;68542;-60
2023/12/11 11:05:53;;;;;;;;;;;;;;;2.47;100.00;97105.63;110332;1247;59702;-61
2023/12/11 11:08:39;;;;;;;;;;;;;;;2.48;100.00;97085.64;110574;1240;59657;-62
2023/12/11 11:11:16;;;;;;;;;;;;;;;2.50;100.00;97086.73;110444;1238;70636;-61
2023/12/11 11:14:04;;;;;;;;;;;;;;;2.51;100.00;97080.67;110594;1240;69836;-61
2023/12/11 11:17:05;;;;;;;;;;;;;;;2.55;100.00;97069.30;110523;1243;69097;-61
2023/12/11 11:19:36;;;;;;;;;;;;;;;2.63;100.00;97079.11;109964;1238;59695;-61
2023/12/11 11:22:09;;;;;;;;;;;;;;;2.67;100.00;97092.82;110513;1241;59711;-61
2023/12/11 11:24:41;;;;;;;;;;;;;;;2.72;100.00;97083.32;110435;1238;71354;-60
2023/12/11 11:27:28;;;;;;;;;;;;;;;2.77;100.00;97075.87;110424;1239;69813;-61
2023/12/11 11:29:58;;;;;;;;;;;;;;;2.78;100.00;97066.36;110614;1240;68772;-61
2023/12/11 11:32:46;;;;;;;;;;;;;;;2.74;100.00;97061.70;110404;1238;59698;-61
2023/12/11 11:35:36;;;;;;;;;;;;;;;2.64;100.00;97052.02;110568;1241;59746;-61
2023/12/11 11:38:04;;;;;;;;;;;;;;;2.50;100.00;97054.92;110339;1238;71996;-61
2023/12/11 11:40:35;;;;;;;;;;;;;;;2.44;100.00;97054.53;110532;1242;69763;-61
2023/12/11 11:43:07;;;;;;;;;;;;;;;2.36;100.00;97045.09;110575;1241;69167;-61
2023/12/11 11:45:37;;;;;;;;;;;;;;;2.31;100.00;97033.42;110543;1241;59708;-61
2023/12/11 11:48:06;;;;;;;;;;;;;;;2.28;100.00;97030.82;110420;1241;59679;-60
2023/12/11 11:50:48;;;;;;;;;;;;;;;2.25;100.00;97040.76;110349;1241;71520;-61
2023/12/11 11:53:20;;;;;;;;;;;;;;;2.24;100.00;97038.40;110492;1241;69039;-61
2023/12/11 11:55:48;;;;;;;;;;;;;;;2.23;100.00;97042.91;110525;1241;68542;-61
2023/12/11 11:58:18;;;;;;;;;;;;;;;2.25;100.00;97051.41;110414;1240;59726;-60
2023/12/11 12:00:49;;;;;;;;;;;;;;;2.28;100.00;97064.18;110482;1242;59685;-61
2023/12/11 12:03:18;;;;;;;;;;;;;;;2.29;100.00;97065.68;110412;1240;70361;-61
2023/12/11 12:05:55;;;;;;;;;;;;;;;2.34;100.00;97056.88;110450;1240;69192;-62
2023/12/11 12:08:24;;;;;;;;;;;;;;;2.29;100.00;97031.30;110442;1238;70257;-61
2023/12/11 12:10:57;;;;;;;;;;;;;;;2.24;100.00;97012.27;110454;1240;59669;-62
2023/12/11 12:13:31;;;;;;;;;;;;;;;2.19;100.00;97015.23;110569;1238;59794;-61
2023/12/11 12:16:00;;;;;;;;;;;;;;;2.16;100.00;97013.52;110453;1238;71052;-61
2023/12/11 12:18:30;;;;;;;;;;;;;;;2.15;100.00;97004.61;110549;1240;69792;-61
2023/12/11 12:21:05;;;;;;;;;;;;;;;2.15;100.00;97006.69;110405;1240;69853;-61
2023/12/11 12:23:34;;;;;;;;;;;;;;;2.14;100.00;97011.00;110402;1240;59676;-61
2023/12/11 12:26:04;;;;;;;;;;;;;;;2.15;100.00;96999.43;110402;1238;59689;-61
2023/12/11 12:28:34;;;;;;;;;;;;;;;2.15;100.00;96989.48;110394;1241;72128;-61
2023/12/11 12:31:03;;;;;;;;;;;;;;;2.17;100.00;96986.29;110580;1241;69076;-62
2023/12/11 12:33:32;;;;;;;;;;;;;;;2.51;100.00;96987.45;110359;1241;69854;-61
2023/12/11 12:36:01;;;;;;;;;;;;;;;2.83;100.00;96986.95;110392;1241;59757;-61
2023/12/11 12:38:31;;;;;;;;;;;;;;;2.95;100.00;96988.58;110349;1238;59728;-61
2023/12/11 12:41:00;;;;;;;;;;;;;;;2.91;100.00;96994.48;110384;1241;71961;-61
2023/12/11 12:43:29;;;;;;;;;;;;;;;2.86;100.00;97001.80;110392;1240;69343;-61
2023/12/11 12:45:59;;;;;;;;;;;;;;;2.83;100.00;97013.80;110359;1241;69804;-61
2023/12/11 12:48:28;;;;;;;;;;;;;;;2.70;100.00;97018.71;110529;1241;59685;-62
2023/12/11 12:51:09;;;;;;;;;;;;;;;2.57;100.00;97027.26;110551;1240;59611;-62
2023/12/11 12:53:47;;;;;;;;;;;;;;;2.61;100.00;97031.02;110455;1241;71999;-62
2023/12/11 12:56:17;;;;;;;;;;;;;;;2.71;100.00;97037.61;110505;1240;69874;-61
2023/12/11 12:58:48;;;;;;;;;;;;;;;2.75;100.00;97032.92;110450;1239;68360;-61